首页
METAR-TAF:

METAR-TAF

机场 :

Tri-City Airport

Parsons, 堪薩斯州, 美国

纬度: 37-19-40N, 经度: 095-30-15W, 海拔: 274米

当前天气观测

该预报发布于57分钟前的15:52 UTC
风速7节,风向南转西南
温度 24°C
湿度 50%
气压 1018 hPa
能見度: 16.1公里
天空无云

METAR: KPPF 281552Z AUTO 20007KT 10SM CLR 24/13 A3007 RMK AO2 SLP176 T02440133

时间: 11:49 (16:49 UTC)


TAF: 丢失

超过4000个机场的气象观测和天气预报(METAR&TAF报告)。

可查询的气象台以黄色和红色小点在地图上表示。

将鼠标移到小点上方,可查看气象台名称。

然后点击查看天气观测和预报。

如需切换地图:点击带黑十字的绿色按钮放大地图;点击带横线的绿色按钮缩小地图;或者点击绿色箭头查看邻近地区的地图。


METAR-TAF: